createdAt,value
2023-03-19T00:04:02.029Z,92.86
2023-03-19T00:09:05.228Z,93.03
2023-03-19T00:14:07.450Z,92.85
2023-03-19T00:19:09.176Z,92.94
2023-03-19T00:24:12.583Z,92.77
2023-03-19T00:29:14.758Z,93.83
2023-03-19T00:34:16.440Z,93.62
2023-03-19T00:39:19.495Z,93.36
2023-03-19T00:44:21.442Z,93.68
2023-03-19T00:49:23.411Z,93.43
2023-03-19T00:54:26.445Z,93.87
2023-03-19T00:59:28.162Z,93.94
2023-03-19T01:04:29.979Z,93.71
2023-03-19T01:09:33.636Z,93.94
2023-03-19T01:14:35.813Z,93.80
2023-03-19T01:19:37.950Z,94.15
2023-03-19T01:24:41.438Z,94.09
2023-03-19T01:29:43.535Z,94.41
2023-03-19T01:34:45.550Z,94.40
2023-03-19T01:39:51.212Z,93.04
2023-03-19T01:44:53.483Z,92.59
2023-03-19T01:49:57.332Z,92.98
2023-03-19T01:55:03.122Z,92.27
2023-03-19T02:00:07.085Z,91.93
2023-03-19T02:05:12.147Z,91.24
2023-03-19T02:10:17.447Z,88.28
2023-03-19T02:15:20.088Z,88.60
2023-03-19T02:20:27.517Z,88.40
2023-03-19T02:25:38.186Z,86.36
2023-03-19T02:30:43.349Z,86.00
2023-03-19T02:35:47.718Z,86.57
2023-03-19T02:40:58.351Z,83.71
2023-03-19T02:46:02.278Z,82.60
2023-03-19T02:51:04.842Z,83.25
2023-03-19T02:56:07.731Z,84.68
2023-03-19T03:01:11.282Z,85.16
2023-03-19T03:06:13.502Z,83.79
2023-03-19T03:11:15.595Z,85.05
2023-03-19T03:16:19.266Z,87.29
2023-03-19T03:21:21.662Z,86.94
2023-03-19T03:26:23.715Z,88.02
2023-03-19T03:31:33.119Z,89.02
2023-03-19T03:36:35.219Z,90.85
2023-03-19T03:41:37.248Z,92.10
2023-03-19T03:46:40.992Z,93.31
2023-03-19T03:51:42.717Z,94.29
2023-03-19T03:56:44.924Z,94.57
2023-03-19T04:01:48.491Z,95.85
2023-03-19T04:06:52.515Z,97.33
2023-03-19T04:11:54.612Z,97.50
2023-03-19T04:16:58.115Z,97.87
2023-03-19T04:22:00.225Z,96.42
2023-03-19T04:27:02.316Z,94.99
2023-03-19T04:32:06.646Z,93.68
2023-03-19T04:37:09.250Z,96.27
2023-03-19T04:42:11.107Z,98.57
2023-03-19T04:47:14.830Z,99.45
2023-03-19T04:52:16.931Z,100.00
2023-03-19T04:57:19.152Z,100.00
2023-03-19T05:02:22.744Z,100.00
2023-03-19T05:07:24.869Z,100.00
2023-03-19T05:12:26.902Z,100.00
2023-03-19T05:17:30.768Z,100.00
2023-03-19T05:22:40.470Z,100.00
2023-03-19T05:27:42.532Z,100.00
2023-03-19T05:32:46.250Z,100.00
2023-03-19T05:37:48.374Z,100.00
2023-03-19T05:42:51.182Z,100.00
2023-03-19T05:47:54.593Z,100.00
2023-03-19T05:52:57.084Z,100.00
2023-03-19T05:57:59.534Z,100.00
2023-03-19T06:03:03.262Z,100.00
2023-03-19T06:08:05.903Z,100.00
2023-03-19T06:13:07.777Z,100.00
2023-03-19T06:18:13.373Z,100.00
2023-03-19T06:23:16.394Z,99.59
2023-03-19T06:28:18.901Z,98.64
2023-03-19T06:33:22.416Z,98.49
2023-03-19T06:38:24.725Z,98.00
2023-03-19T06:43:27.048Z,96.70
2023-03-19T06:48:30.586Z,98.73
2023-03-19T06:53:33.721Z,98.88
2023-03-19T06:58:36.007Z,99.53
2023-03-19T07:03:39.705Z,100.00
2023-03-19T07:08:41.886Z,100.00
2023-03-19T07:13:44.399Z,100.00
2023-03-19T07:18:47.781Z,100.00
2023-03-19T07:23:49.996Z,100.00
2023-03-19T07:28:52.290Z,100.00
2023-03-19T07:33:55.863Z,100.00
2023-03-19T07:38:58.467Z,100.00
2023-03-19T07:44:00.769Z,100.00
2023-03-19T07:49:05.264Z,100.00
2023-03-19T07:54:07.640Z,100.00
2023-03-19T07:59:09.820Z,100.00
2023-03-19T08:04:13.356Z,100.00
2023-03-19T08:09:15.392Z,100.00
2023-03-19T08:14:17.318Z,100.00
2023-03-19T08:19:20.896Z,100.00
2023-03-19T08:24:22.992Z,100.00
2023-03-19T08:29:25.090Z,100.00
2023-03-19T08:34:28.398Z,100.00
2023-03-19T08:39:30.466Z,100.00
2023-03-19T08:44:32.243Z,100.00
2023-03-19T08:49:35.757Z,100.00
2023-03-19T08:54:37.571Z,99.91
2023-03-19T08:59:39.727Z,97.66
2023-03-19T09:04:43.058Z,96.74
2023-03-19T09:09:45.610Z,96.37
2023-03-19T09:14:47.417Z,95.33
2023-03-19T09:19:52.887Z,95.20
2023-03-19T09:24:55.015Z,93.28
2023-03-19T09:29:56.782Z,92.99
2023-03-19T09:35:00.425Z,92.68
2023-03-19T09:40:02.492Z,92.35
2023-03-19T09:45:12.225Z,93.58
2023-03-19T09:50:17.460Z,92.53
2023-03-19T09:55:36.009Z,87.39
2023-03-19T10:00:39.593Z,86.60
2023-03-19T10:05:55.041Z,88.41
2023-03-19T10:11:15.314Z,85.43
2023-03-19T10:16:21.426Z,79.32
2023-03-19T10:21:33.072Z,80.21
2023-03-19T10:26:35.827Z,73.05
2023-03-19T10:31:43.924Z,70.92
2023-03-19T10:36:47.597Z,73.35
2023-03-19T10:41:57.684Z,73.22
2023-03-19T10:47:08.886Z,76.27
2023-03-19T10:52:22.676Z,76.30
2023-03-19T10:57:27.950Z,77.67
2023-03-19T11:02:31.075Z,77.66
2023-03-19T11:07:36.652Z,77.30
2023-03-19T11:12:38.930Z,76.93
2023-03-19T11:17:46.090Z,77.65
2023-03-19T11:22:49.901Z,78.86
2023-03-19T11:27:59.275Z,79.33
2023-03-19T11:33:25.908Z,78.55
2023-03-19T11:38:39.597Z,78.48
2023-03-19T11:43:47.022Z,76.84
2023-03-19T11:49:11.256Z,76.99
2023-03-19T11:54:23.803Z,75.75
2023-03-19T11:59:38.032Z,75.61
2023-03-19T12:04:59.016Z,76.36
2023-03-19T12:10:20.386Z,75.04
2023-03-19T12:15:27.942Z,73.77
2023-03-19T12:20:40.694Z,72.00
2023-03-19T12:25:57.685Z,71.90
2023-03-19T12:31:19.117Z,69.74
2023-03-19T12:36:25.912Z,67.77
2023-03-19T12:41:30.692Z,68.09
2023-03-19T12:46:36.482Z,65.44
2023-03-19T12:51:42.104Z,66.94
2023-03-19T12:56:51.733Z,66.77
2023-03-19T13:02:01.888Z,66.24
2023-03-19T13:07:10.065Z,65.88
2023-03-19T13:12:20.704Z,64.45
2023-03-19T13:17:27.518Z,65.82
2023-03-19T13:22:35.210Z,66.23
2023-03-19T13:27:38.715Z,65.89
2023-03-19T13:32:43.121Z,65.12
2023-03-19T13:37:48.021Z,65.21
2023-03-19T13:42:57.337Z,63.52
2023-03-19T13:48:24.705Z,61.79
2023-03-19T13:53:40.532Z,60.19
2023-03-19T13:58:49.481Z,60.90
2023-03-19T14:03:56.043Z,58.80
2023-03-19T14:08:58.955Z,59.06
2023-03-19T14:14:05.584Z,57.13
2023-03-19T14:19:12.470Z,57.21
2023-03-19T14:29:55.144Z,56.80
2023-03-19T14:34:57.797Z,57.36
2023-03-19T14:40:09.582Z,55.94
2023-03-19T14:45:54.904Z,57.15
2023-03-19T14:51:25.332Z,56.25
2023-03-19T14:56:31.993Z,56.92
2023-03-19T15:01:40.726Z,56.99
2023-03-19T15:06:44.966Z,56.95
2023-03-19T15:12:26.926Z,56.60
2023-03-19T15:17:31.600Z,56.64
2023-03-19T15:22:34.702Z,57.31
2023-03-19T15:27:36.903Z,56.83
2023-03-19T15:33:19.721Z,56.45
2023-03-19T15:38:08.860Z,55.90
2023-03-19T15:43:12.800Z,56.43
2023-03-19T15:48:21.481Z,56.26
2023-03-19T15:53:26.207Z,55.95
2023-03-19T15:58:32.161Z,56.33
2023-03-19T16:03:38.106Z,57.50
2023-03-19T16:08:47.313Z,58.84
2023-03-19T16:14:00.309Z,59.53
2023-03-19T16:19:04.063Z,59.92
2023-03-19T16:24:18.806Z,60.48
2023-03-19T16:29:24.031Z,60.65
2023-03-19T16:34:33.270Z,61.31
2023-03-19T16:39:37.240Z,62.10
2023-03-19T16:44:41.024Z,62.04
2023-03-19T16:49:46.353Z,62.68
2023-03-19T16:54:48.941Z,63.36
2023-03-19T16:59:51.141Z,64.81
2023-03-19T17:04:54.453Z,66.26
2023-03-19T17:09:56.262Z,67.18
2023-03-19T17:14:58.053Z,69.16
2023-03-19T17:20:01.508Z,70.34
2023-03-19T17:25:03.414Z,71.98
2023-03-19T17:30:06.473Z,73.77
2023-03-19T17:35:16.267Z,76.73
2023-03-19T17:40:20.453Z,79.01
2023-03-19T17:45:26.517Z,79.53
2023-03-19T17:50:31.540Z,80.42
2023-03-19T17:55:33.831Z,81.54
2023-03-19T18:00:35.879Z,81.20
2023-03-19T18:05:39.524Z,81.33
2023-03-19T18:10:42.165Z,82.18
2023-03-19T18:15:45.531Z,82.48
2023-03-19T18:20:50.617Z,82.88
2023-03-19T18:25:53.306Z,84.39
2023-03-19T18:30:56.124Z,84.66
2023-03-19T18:36:02.936Z,85.14
2023-03-19T18:41:05.478Z,84.07
2023-03-19T18:46:12.632Z,83.96
2023-03-19T18:51:17.142Z,83.28
2023-03-19T18:56:22.931Z,83.54
2023-03-19T19:01:26.594Z,83.92
2023-03-19T19:06:46.415Z,85.57
2023-03-19T19:11:49.973Z,85.59
2023-03-19T19:16:54.041Z,85.17
2023-03-19T19:21:57.653Z,83.26
2023-03-19T19:27:00.304Z,82.02
2023-03-19T19:32:03.328Z,81.66
2023-03-19T19:37:14.415Z,80.87
2023-03-19T19:42:19.524Z,79.34
2023-03-19T19:47:21.874Z,79.42
2023-03-19T19:52:25.708Z,78.93
2023-03-19T19:57:28.080Z,78.62
2023-03-19T20:02:30.652Z,79.29
2023-03-19T20:07:34.900Z,79.42
2023-03-19T20:12:37.464Z,80.37
2023-03-19T20:17:40.193Z,80.71
2023-03-19T20:22:43.472Z,81.10
2023-03-19T20:27:47.240Z,81.91
2023-03-19T20:32:49.805Z,82.17
2023-03-19T20:37:55.316Z,82.92
2023-03-19T20:42:57.922Z,83.69
2023-03-19T20:48:00.075Z,84.08
2023-03-19T20:53:03.559Z,84.58
2023-03-19T20:58:21.043Z,85.04
2023-03-19T21:03:24.724Z,85.95
2023-03-19T21:08:33.428Z,86.66
2023-03-19T21:13:37.021Z,87.46
2023-03-19T21:18:39.087Z,88.04
2023-03-19T21:23:47.855Z,88.47
2023-03-19T21:28:51.960Z,88.76
2023-03-19T21:33:54.335Z,88.67
2023-03-19T21:38:58.693Z,89.06
2023-03-19T21:44:03.553Z,89.01
2023-03-19T21:49:10.781Z,89.02
2023-03-19T21:54:14.321Z,89.69
2023-03-19T21:59:19.540Z,89.79
2023-03-19T22:04:21.632Z,90.13
2023-03-19T22:09:25.071Z,90.37
2023-03-19T22:14:27.166Z,91.16
2023-03-19T22:19:29.602Z,91.45
2023-03-19T22:24:33.128Z,91.84
2023-03-19T22:29:35.324Z,91.67
2023-03-19T22:34:37.538Z,92.05
2023-03-19T22:39:41.189Z,92.13
2023-03-19T22:44:43.323Z,92.12
2023-03-19T22:49:45.755Z,92.48
2023-03-19T22:54:49.240Z,92.47
2023-03-19T22:59:51.426Z,93.17
2023-03-19T23:04:53.498Z,93.48
2023-03-19T23:09:57.183Z,93.53
2023-03-19T23:15:02.406Z,93.46
2023-03-19T23:20:12.493Z,93.91
2023-03-19T23:25:18.748Z,94.85
2023-03-19T23:30:24.150Z,96.37
2023-03-19T23:35:27.969Z,97.75
2023-03-19T23:40:33.447Z,98.70
2023-03-19T23:45:38.326Z,99.06
2023-03-19T23:50:40.634Z,99.07
2023-03-19T23:55:44.176Z,99.14
